Time;durP1;ratioP1;P1;durP2;ratioP2;P2;SDS_P1;SDS_P2;PMS_P1;PMS_P2;Temp;Humidity;BMP_temperature;BMP_pressure;BME280_temperature;BME280_humidity;BME280_pressure;Samples;Min_cycle;Max_cycle;Signal;HPM_P1;HPM_P2
2022/06/06 00:00:00;;;;;;;19.52;13.70;;;;;;;;;;5007961;28;20229;-66
2022/06/06 00:02:27;;;;;;;21.40;15.43;;;;;;;;;;5005126;28;20179;-68
2022/06/06 00:04:53;;;;;;;19.10;15.80;;;;;;;;;;5011128;28;20182;-67
2022/06/06 00:07:19;;;;;;;21.77;15.38;;;;;;;;;;5008631;28;20254;-68
2022/06/06 00:09:44;;;;;;;21.88;15.80;;;;;;;;;;5008079;28;20186;-69
2022/06/06 00:12:10;;;;;;;24.92;16.08;;;;;;;;;;5009161;28;21484;-72
2022/06/06 00:14:35;;;;;;;25.10;16.25;;;;;;;;;;5007972;28;20209;-67
2022/06/06 00:17:01;;;;;;;22.42;15.55;;;;;;;;;;5005571;28;20203;-67
2022/06/06 00:19:26;;;;;;;24.45;16.23;;;;;;;;;;5003718;28;20646;-66
2022/06/06 00:21:52;;;;;;;28.30;17.85;;;;;;;;;;5010181;28;20284;-68
2022/06/06 00:24:18;;;;;;;28.20;17.98;;;;;;;;;;5007016;28;20344;-66
2022/06/06 00:26:44;;;;;;;31.98;20.02;;;;;;;;;;5006843;28;20685;-67
2022/06/06 00:29:13;;;;;;;33.72;20.65;;;;;;;;;;5008445;28;20520;-69
2022/06/06 00:37:09;;;;;;;42.20;23.38;;;;;;;;;;5005463;28;20673;-70
2022/06/06 00:39:35;;;;;;;40.88;23.75;;;;;;;;;;5011078;28;20261;-67
2022/06/06 00:42:01;;;;;;;44.00;23.50;;;;;;;;;;5012002;28;20332;-69
2022/06/06 00:44:32;;;;;;;43.33;23.30;;;;;;;;;;5005099;28;20595;-68
2022/06/06 00:47:24;;;;;;;44.67;24.35;;;;;;;;;;5008215;28;20175;-67
2022/06/06 00:50:14;;;;;;;42.53;23.42;;;;;;;;;;5011090;28;20189;-67
2022/06/06 00:52:41;;;;;;;41.55;23.02;;;;;;;;;;4996018;28;20756;-71
2022/06/06 00:55:15;;;;;;;40.22;22.40;;;;;;;;;;5008178;28;20213;-67
2022/06/06 00:57:48;;;;;;;36.13;22.05;;;;;;;;;;5000125;28;20270;-71
2022/06/06 01:00:18;;;;;;;51.47;24.30;;;;;;;;;;5003152;28;20595;-67
2022/06/06 01:02:48;;;;;;;39.88;23.30;;;;;;;;;;5008631;28;20179;-68
2022/06/06 01:05:14;;;;;;;45.83;24.67;;;;;;;;;;4995225;28;20760;-65
2022/06/06 01:07:39;;;;;;;43.25;24.30;;;;;;;;;;5010727;28;20214;-69
2022/06/06 01:10:05;;;;;;;42.13;22.85;;;;;;;;;;5010339;28;20209;-66
2022/06/06 01:12:32;;;;;;;50.67;26.35;;;;;;;;;;5007700;28;20191;-67
2022/06/06 01:15:06;;;;;;;56.17;26.23;;;;;;;;;;5005786;28;20225;-68
2022/06/06 01:17:40;;;;;;;58.55;30.38;;;;;;;;;;4998349;28;20175;-66
2022/06/06 01:20:12;;;;;;;56.22;29.05;;;;;;;;;;5002185;28;20591;-65
2022/06/06 01:23:07;;;;;;;56.63;29.05;;;;;;;;;;5008451;28;20213;-67
2022/06/06 01:25:58;;;;;;;56.63;28.20;;;;;;;;;;4999247;28;20722;-66
2022/06/06 01:28:35;;;;;;;56.78;28.13;;;;;;;;;;5000054;28;20178;-67
2022/06/06 01:31:05;;;;;;;53.25;25.60;;;;;;;;;;4989414;28;20203;-68
2022/06/06 01:33:51;;;;;;;51.47;25.08;;;;;;;;;;5001238;28;20229;-68
2022/06/06 01:36:18;;;;;;;41.97;22.17;;;;;;;;;;4994727;28;20690;-67
2022/06/06 01:38:44;;;;;;;45.22;22.55;;;;;;;;;;5010291;28;20266;-66
2022/06/06 01:41:15;;;;;;;42.35;22.52;;;;;;;;;;5008706;28;20217;-68
2022/06/06 01:43:48;;;;;;;40.55;21.45;;;;;;;;;;5008567;28;20261;-68
2022/06/06 01:46:20;;;;;;;36.30;20.85;;;;;;;;;;5007365;28;20640;-66
2022/06/06 01:48:48;;;;;;;38.88;20.92;;;;;;;;;;4993348;28;20186;-68
2022/06/06 01:51:18;;;;;;;42.85;21.30;;;;;;;;;;5003031;28;20202;-68
2022/06/06 01:53:45;;;;;;;42.50;22.30;;;;;;;;;;5005342;28;20423;-67
2022/06/06 01:56:15;;;;;;;48.25;22.88;;;;;;;;;;5008795;28;20211;-67
2022/06/06 01:58:40;;;;;;;50.80;23.40;;;;;;;;;;5009144;28;20210;-68
2022/06/06 02:01:05;;;;;;;50.10;22.65;;;;;;;;;;4991973;28;20183;-66
2022/06/06 02:03:32;;;;;;;51.60;22.95;;;;;;;;;;5007442;28;20178;-68
2022/06/06 02:05:58;;;;;;;42.30;21.90;;;;;;;;;;5007711;28;20182;-68
2022/06/06 02:08:23;;;;;;;43.65;22.23;;;;;;;;;;4993914;28;20592;-67
2022/06/06 02:10:49;;;;;;;43.53;21.45;;;;;;;;;;4995053;28;20560;-66
2022/06/06 02:13:15;;;;;;;37.33;20.67;;;;;;;;;;4993937;28;20175;-72
2022/06/06 02:15:42;;;;;;;40.95;20.65;;;;;;;;;;5001200;28;20239;-68
2022/06/06 02:18:08;;;;;;;42.15;20.58;;;;;;;;;;4998343;28;20186;-69
2022/06/06 02:20:34;;;;;;;39.92;20.13;;;;;;;;;;4989679;28;20399;-69
2022/06/06 02:22:59;;;;;;;41.88;20.60;;;;;;;;;;5030118;28;20175;-69
2022/06/06 02:25:27;;;;;;;38.00;20.65;;;;;;;;;;4994101;28;20256;-69
2022/06/06 02:27:53;;;;;;;42.45;20.98;;;;;;;;;;4997514;28;20189;-67
2022/06/06 02:30:21;;;;;;;36.30;19.70;;;;;;;;;;4993557;28;20176;-65
2022/06/06 02:32:47;;;;;;;36.38;20.10;;;;;;;;;;5001897;28;20199;-69
2022/06/06 02:35:17;;;;;;;44.58;20.73;;;;;;;;;;5007546;28;20579;-66
2022/06/06 02:37:44;;;;;;;37.03;19.20;;;;;;;;;;5003733;28;20544;-68
2022/06/06 02:40:12;;;;;;;37.65;19.52;;;;;;;;;;5009167;28;20451;-65
2022/06/06 02:42:38;;;;;;;39.92;21.42;;;;;;;;;;5006487;28;20186;-65
2022/06/06 02:45:05;;;;;;;37.08;20.55;;;;;;;;;;5007077;28;20244;-69
2022/06/06 02:47:31;;;;;;;41.75;21.08;;;;;;;;;;5008314;28;20654;-66
2022/06/06 02:49:57;;;;;;;41.42;18.98;;;;;;;;;;5007120;28;20178;-66
2022/06/06 02:52:22;;;;;;;41.42;21.10;;;;;;;;;;5007886;28;20175;-69
2022/06/06 02:54:48;;;;;;;38.55;19.90;;;;;;;;;;5007839;28;20639;-67
2022/06/06 02:57:13;;;;;;;35.63;18.60;;;;;;;;;;5000593;28;20241;-65
2022/06/06 02:59:41;;;;;;;27.02;16.63;;;;;;;;;;5008224;28;20178;-66
2022/06/06 03:02:08;;;;;;;34.58;17.17;;;;;;;;;;5030709;28;20182;-69
2022/06/06 03:04:34;;;;;;;28.42;16.42;;;;;;;;;;5007039;28;20917;-67
2022/06/06 03:07:09;;;;;;;29.60;16.33;;;;;;;;;;5002096;28;20214;-67
2022/06/06 03:09:53;;;;;;;33.05;16.92;;;;;;;;;;4999159;28;20277;-70
2022/06/06 03:12:27;;;;;;;30.65;17.13;;;;;;;;;;5003782;28;20540;-72
2022/06/06 03:15:12;;;;;;;27.15;15.35;;;;;;;;;;5006620;28;20186;-68
2022/06/06 03:23:46;;;;;;;31.70;15.82;;;;;;;;;;4993095;28;20677;-66
2022/06/06 03:26:11;;;;;;;23.30;13.70;;;;;;;;;;4998984;28;20198;-66
2022/06/06 03:28:52;;;;;;;25.00;13.60;;;;;;;;;;5007853;28;20266;-66
2022/06/06 03:31:38;;;;;;;24.08;14.38;;;;;;;;;;5007768;28;20224;-67
2022/06/06 03:34:20;;;;;;;27.13;14.63;;;;;;;;;;4999918;28;20188;-68
2022/06/06 03:37:01;;;;;;;25.70;13.30;;;;;;;;;;5009504;28;20214;-66
2022/06/06 03:39:45;;;;;;;25.23;12.50;;;;;;;;;;5010353;28;20202;-66
2022/06/06 03:42:14;;;;;;;21.65;11.30;;;;;;;;;;5006856;28;20178;-66
2022/06/06 03:44:53;;;;;;;20.58;11.32;;;;;;;;;;5005510;28;20840;-66
2022/06/06 03:47:31;;;;;;;19.35;12.23;;;;;;;;;;5009950;28;20211;-65
2022/06/06 03:50:02;;;;;;;22.58;12.52;;;;;;;;;;5009870;28;20190;-66
2022/06/06 03:52:38;;;;;;;22.33;13.27;;;;;;;;;;5005781;28;20479;-66
2022/06/06 03:55:21;;;;;;;23.23;13.88;;;;;;;;;;5010799;28;20190;-67
2022/06/06 03:57:48;;;;;;;26.33;13.55;;;;;;;;;;5009415;28;20205;-66
2022/06/06 04:00:16;;;;;;;26.42;14.85;;;;;;;;;;5009783;28;20182;-66
2022/06/06 04:02:44;;;;;;;28.65;15.30;;;;;;;;;;5007720;28;20226;-66
2022/06/06 04:05:14;;;;;;;28.45;16.42;;;;;;;;;;5009984;28;20194;-68
2022/06/06 04:07:40;;;;;;;34.72;18.60;;;;;;;;;;5006722;28;20221;-65
2022/06/06 04:10:06;;;;;;;36.38;19.52;;;;;;;;;;5005554;28;20214;-66
2022/06/06 04:12:56;;;;;;;35.00;18.55;;;;;;;;;;5009252;28;20244;-69
2022/06/06 04:15:44;;;;;;;41.45;19.45;;;;;;;;;;5004756;28;20198;-67
2022/06/06 04:18:26;;;;;;;37.60;19.75;;;;;;;;;;5009781;28;20187;-65
2022/06/06 04:21:19;;;;;;;34.25;18.83;;;;;;;;;;5009279;28;20213;-66
2022/06/06 04:24:03;;;;;;;34.60;18.85;;;;;;;;;;5006994;28;20258;-65
2022/06/06 04:26:57;;;;;;;35.17;19.33;;;;;;;;;;4994101;28;20167;-66
2022/06/06 04:29:43;;;;;;;37.78;19.48;;;;;;;;;;5006407;28;20680;-66
2022/06/06 04:32:18;;;;;;;36.30;19.00;;;;;;;;;;4994108;28;20722;-66
2022/06/06 04:34:56;;;;;;;34.75;19.05;;;;;;;;;;5004112;28;20228;-66
2022/06/06 04:37:30;;;;;;;33.63;19.02;;;;;;;;;;5004490;28;20199;-68
2022/06/06 04:40:01;;;;;;;36.95;19.63;;;;;;;;;;5010077;28;20182;-66
2022/06/06 04:42:45;;;;;;;41.13;20.08;;;;;;;;;;5008215;28;20182;-67
2022/06/06 04:45:31;;;;;;;38.75;19.80;;;;;;;;;;4997512;28;20202;-65
2022/06/06 04:47:59;;;;;;;33.45;18.15;;;;;;;;;;5000088;28;20287;-65
2022/06/06 04:50:24;;;;;;;34.92;18.92;;;;;;;;;;5005293;28;20240;-67
2022/06/06 04:52:55;;;;;;;37.90;18.77;;;;;;;;;;5008353;28;20568;-65
2022/06/06 04:55:23;;;;;;;35.03;17.67;;;;;;;;;;5006949;28;20187;-67
2022/06/06 04:57:53;;;;;;;35.67;18.55;;;;;;;;;;5006998;28;20187;-67
2022/06/06 05:00:20;;;;;;;34.80;17.38;;;;;;;;;;5006724;28;20187;-71
2022/06/06 05:02:45;;;;;;;32.28;17.55;;;;;;;;;;5008325;28;20190;-66
2022/06/06 05:05:11;;;;;;;34.78;18.02;;;;;;;;;;5007756;28;20183;-67
2022/06/06 05:07:55;;;;;;;31.95;18.20;;;;;;;;;;5007216;28;20265;-67
2022/06/06 05:10:55;;;;;;;35.88;18.55;;;;;;;;;;5006388;28;20639;-66
2022/06/06 05:13:42;;;;;;;41.03;18.10;;;;;;;;;;5003643;28;20667;-69
2022/06/06 05:16:31;;;;;;;38.30;18.30;;;;;;;;;;5005895;28;20300;-67
2022/06/06 05:19:25;;;;;;;35.05;16.80;;;;;;;;;;5008305;28;20204;-66
2022/06/06 05:22:06;;;;;;;37.83;17.52;;;;;;;;;;5000297;28;20600;-67
2022/06/06 05:24:50;;;;;;;33.45;16.00;;;;;;;;;;5001410;28;20226;-67
2022/06/06 05:27:19;;;;;;;31.60;15.52;;;;;;;;;;5003916;28;20186;-66
2022/06/06 05:30:21;;;;;;;31.77;16.13;;;;;;;;;;5029465;28;20682;-68
2022/06/06 05:33:07;;;;;;;31.63;15.77;;;;;;;;;;5005372;28;20221;-67
2022/06/06 05:36:05;;;;;;;28.55;14.60;;;;;;;;;;5005347;28;20213;-70
2022/06/06 05:38:42;;;;;;;29.20;15.57;;;;;;;;;;5004060;28;20233;-66
2022/06/06 05:41:25;;;;;;;32.17;15.60;;;;;;;;;;5035967;28;20252;-66
2022/06/06 05:44:03;;;;;;;35.35;16.60;;;;;;;;;;5006429;28;20225;-69
2022/06/06 05:46:54;;;;;;;31.77;16.33;;;;;;;;;;5006327;28;20189;-69
2022/06/06 05:49:31;;;;;;;33.85;16.48;;;;;;;;;;5004165;28;20257;-66
2022/06/06 05:52:00;;;;;;;34.78;16.20;;;;;;;;;;5004495;28;20214;-66
2022/06/06 05:54:44;;;;;;;30.67;16.02;;;;;;;;;;5007228;28;20178;-65
2022/06/06 05:57:28;;;;;;;32.55;16.52;;;;;;;;;;5006150;28;20191;-65
2022/06/06 06:00:16;;;;;;;35.67;17.08;;;;;;;;;;5003456;28;20183;-66
2022/06/06 06:03:21;;;;;;;34.35;16.88;;;;;;;;;;5001397;28;20197;-65
2022/06/06 06:05:52;;;;;;;41.25;17.77;;;;;;;;;;5005424;28;20680;-66
2022/06/06 06:08:33;;;;;;;30.05;16.15;;;;;;;;;;5000736;28;20201;-66
2022/06/06 06:11:37;;;;;;;37.65;17.70;;;;;;;;;;5005482;28;20814;-68
2022/06/06 06:14:28;;;;;;;36.97;17.02;;;;;;;;;;4983185;28;20254;-66
2022/06/06 06:16:59;;;;;;;35.67;16.90;;;;;;;;;;5004582;28;20210;-64
2022/06/06 06:19:34;;;;;;;37.42;18.38;;;;;;;;;;5002227;28;20297;-69
2022/06/06 06:22:01;;;;;;;41.97;20.58;;;;;;;;;;5005527;28;20190;-70
2022/06/06 06:24:37;;;;;;;43.90;20.90;;;;;;;;;;5006227;28;20309;-67
2022/06/06 06:27:05;;;;;;;46.00;23.30;;;;;;;;;;5003611;28;20665;-71
2022/06/06 06:29:30;;;;;;;42.25;22.33;;;;;;;;;;5037082;28;20175;-66
2022/06/06 06:32:17;;;;;;;38.47;20.42;;;;;;;;;;5005730;28;20214;-67
2022/06/06 06:35:06;;;;;;;30.27;18.33;;;;;;;;;;5004356;28;20171;-66
2022/06/06 06:37:34;;;;;;;29.48;17.92;;;;;;;;;;5005844;28;20582;-67
2022/06/06 06:40:34;;;;;;;35.03;19.50;;;;;;;;;;5005097;28;20548;-68
2022/06/06 06:43:20;;;;;;;33.30;19.02;;;;;;;;;;4989295;28;20211;-65
2022/06/06 06:45:56;;;;;;;30.75;18.70;;;;;;;;;;5004317;28;20559;-69
2022/06/06 06:48:37;;;;;;;33.33;19.00;;;;;;;;;;5004838;28;20174;-66
2022/06/06 06:51:11;;;;;;;33.67;18.30;;;;;;;;;;5004262;28;20190;-66
2022/06/06 06:53:45;;;;;;;32.53;17.45;;;;;;;;;;5004526;28;20286;-67
2022/06/06 06:56:44;;;;;;;27.13;17.15;;;;;;;;;;5004431;28;20185;-67
2022/06/06 06:59:27;;;;;;;27.08;15.57;;;;;;;;;;5006800;28;20715;-68
2022/06/06 07:11:27;;;;;;;22.90;14.50;;;;;;;;;;5007892;28;20229;-69
2022/06/06 07:14:23;;;;;;;22.05;13.52;;;;;;;;;;5009832;28;20598;-68
2022/06/06 07:16:55;;;;;;;19.92;12.65;;;;;;;;;;4997299;28;20656;-66
2022/06/06 07:19:28;;;;;;;24.10;14.35;;;;;;;;;;5003536;28;20199;-67
2022/06/06 07:21:57;;;;;;;25.73;14.73;;;;;;;;;;5004631;28;20271;-66
2022/06/06 07:24:23;;;;;;;21.00;13.55;;;;;;;;;;5009025;28;20249;-68
2022/06/06 07:26:49;;;;;;;15.95;11.80;;;;;;;;;;5009485;28;20179;-69
2022/06/06 07:29:18;;;;;;;18.95;12.05;;;;;;;;;;5042065;28;20557;-67
2022/06/06 07:32:01;;;;;;;19.17;11.77;;;;;;;;;;5009565;28;20674;-67
2022/06/06 07:35:06;;;;;;;17.08;11.00;;;;;;;;;;5008571;28;20185;-66
2022/06/06 07:37:50;;;;;;;16.77;10.40;;;;;;;;;;5010045;28;20199;-65
2022/06/06 07:40:21;;;;;;;13.27;7.85;;;;;;;;;;5008783;28;20496;-69
2022/06/06 07:43:12;;;;;;;9.90;6.40;;;;;;;;;;5008715;28;20183;-70
2022/06/06 07:45:48;;;;;;;11.07;6.25;;;;;;;;;;5009211;28;20607;-68
2022/06/06 07:48:35;;;;;;;8.35;5.20;;;;;;;;;;5005521;28;20613;-67
2022/06/06 07:51:36;;;;;;;7.55;4.70;;;;;;;;;;5006142;28;20299;-66
2022/06/06 07:54:14;;;;;;;10.10;4.63;;;;;;;;;;4949176;28;20195;-67
2022/06/06 07:57:01;;;;;;;6.22;3.90;;;;;;;;;;5001542;28;20680;-69
2022/06/06 07:59:50;;;;;;;5.53;4.00;;;;;;;;;;4999463;28;20181;-65
2022/06/06 08:02:52;;;;;;;9.10;5.07;;;;;;;;;;5006692;28;20210;-66
2022/06/06 08:05:41;;;;;;;8.00;4.95;;;;;;;;;;5001549;28;20270;-70
2022/06/06 08:08:38;;;;;;;9.68;4.72;;;;;;;;;;5005853;28;21456;-69
2022/06/06 08:11:28;;;;;;;10.40;4.40;;;;;;;;;;5004627;28;20190;-68
2022/06/06 08:14:04;;;;;;;7.40;4.10;;;;;;;;;;4996820;28;20184;-68
2022/06/06 08:16:39;;;;;;;12.15;4.55;;;;;;;;;;5007690;28;20225;-69
2022/06/06 08:19:28;;;;;;;6.78;4.38;;;;;;;;;;5007970;28;20287;-68
2022/06/06 08:21:54;;;;;;;7.65;4.55;;;;;;;;;;5002332;28;20179;-66
2022/06/06 08:24:24;;;;;;;8.07;4.30;;;;;;;;;;5006822;28;20238;-67
2022/06/06 08:26:51;;;;;;;8.55;4.70;;;;;;;;;;5003705;28;20252;-67
2022/06/06 08:29:17;;;;;;;4.18;3.42;;;;;;;;;;5006522;28;20183;-66
2022/06/06 08:31:43;;;;;;;6.75;3.58;;;;;;;;;;5003859;28;20202;-69
2022/06/06 08:34:09;;;;;;;6.53;2.95;;;;;;;;;;5009135;28;20179;-68
2022/06/06 08:36:46;;;;;;;4.47;2.60;;;;;;;;;;5008826;28;20210;-68
2022/06/06 08:39:42;;;;;;;4.03;2.67;;;;;;;;;;5003926;28;20186;-67
2022/06/06 08:42:27;;;;;;;3.97;2.00;;;;;;;;;;5007712;28;20170;-68
2022/06/06 08:45:22;;;;;;;4.05;2.25;;;;;;;;;;5006448;28;20182;-68
2022/06/06 08:47:50;;;;;;;4.13;2.20;;;;;;;;;;5005712;28;20171;-68
2022/06/06 08:50:46;;;;;;;3.00;2.17;;;;;;;;;;5004310;28;20178;-66
2022/06/06 08:53:32;;;;;;;6.43;2.92;;;;;;;;;;4999410;28;20183;-69
2022/06/06 08:56:15;;;;;;;5.82;3.58;;;;;;;;;;5006361;28;20551;-68
2022/06/06 08:58:53;;;;;;;7.43;4.15;;;;;;;;;;5005965;28;20504;-67
2022/06/06 09:01:47;;;;;;;6.30;3.83;;;;;;;;;;5007005;28;20653;-65
2022/06/06 09:04:16;;;;;;;6.38;4.50;;;;;;;;;;4994726;28;20198;-66
2022/06/06 09:06:44;;;;;;;5.43;3.75;;;;;;;;;;4998852;28;20266;-66
2022/06/06 09:09:30;;;;;;;4.90;3.30;;;;;;;;;;5003771;28;20639;-68
2022/06/06 09:12:22;;;;;;;3.25;2.95;;;;;;;;;;4995035;28;20265;-66
2022/06/06 09:14:50;;;;;;;5.68;2.80;;;;;;;;;;5006754;28;20261;-67
2022/06/06 09:17:28;;;;;;;4.35;2.83;;;;;;;;;;5005191;28;20207;-68
2022/06/06 09:20:08;;;;;;;4.47;2.60;;;;;;;;;;4996582;28;20191;-65
2022/06/06 09:22:43;;;;;;;8.23;2.72;;;;;;;;;;5001406;28;20565;-66
2022/06/06 09:25:29;;;;;;;4.78;2.85;;;;;;;;;;5007784;28;20276;-67
2022/06/06 09:28:16;;;;;;;6.10;2.42;;;;;;;;;;5006311;28;20212;-66
2022/06/06 09:31:11;;;;;;;5.18;2.65;;;;;;;;;;5005391;28;20177;-67
2022/06/06 09:34:14;;;;;;;3.45;2.13;;;;;;;;;;4988463;28;20538;-66
2022/06/06 09:36:57;;;;;;;4.47;1.63;;;;;;;;;;5018652;28;20490;-68
2022/06/06 09:40:05;;;;;;;5.55;1.30;;;;;;;;;;5005519;28;20209;-68
2022/06/06 09:42:40;;;;;;;2.08;1.08;;;;;;;;;;5005772;28;20190;-67
2022/06/06 09:45:17;;;;;;;3.15;1.42;;;;;;;;;;4994859;28;20201;-68
2022/06/06 09:48:14;;;;;;;2.50;1.45;;;;;;;;;;5006843;28;20194;-67
2022/06/06 09:50:59;;;;;;;2.83;1.67;;;;;;;;;;5004964;28;20677;-65
2022/06/06 09:53:43;;;;;;;2.67;2.00;;;;;;;;;;4990638;28;20273;-67
2022/06/06 09:59:26;;;;;;;3.42;3.13;;;;;;;;;;5003615;28;20194;-69
2022/06/06 10:02:13;;;;;;;4.55;3.28;;;;;;;;;;5011372;28;20623;-68
2022/06/06 10:04:53;;;;;;;4.97;3.35;;;;;;;;;;4998597;28;20179;-67
2022/06/06 10:07:46;;;;;;;8.90;3.17;;;;;;;;;;5001587;28;20257;-66
2022/06/06 10:10:48;;;;;;;3.38;2.92;;;;;;;;;;4994002;28;20183;-68
2022/06/06 10:13:41;;;;;;;4.88;3.25;;;;;;;;;;5003056;28;20179;-70
2022/06/06 10:16:28;;;;;;;4.40;2.97;;;;;;;;;;4992988;28;20230;-68
2022/06/06 10:19:03;;;;;;;3.95;2.65;;;;;;;;;;4994252;28;20194;-68
2022/06/06 10:21:34;;;;;;;2.53;2.22;;;;;;;;;;5007727;28;20175;-67
2022/06/06 10:24:08;;;;;;;2.45;1.70;;;;;;;;;;5012518;28;20190;-65
2022/06/06 10:26:49;;;;;;;4.38;1.58;;;;;;;;;;4996151;28;20709;-69
2022/06/06 10:33:02;;;;;;;2.03;1.40;;;;;;;;;;5002502;28;20225;-66
2022/06/06 10:35:37;;;;;;;4.75;1.58;;;;;;;;;;5013108;28;20174;-69
2022/06/06 10:38:17;;;;;;;4.97;1.60;;;;;;;;;;5006193;28;20195;-69
2022/06/06 10:40:56;;;;;;;2.83;1.38;;;;;;;;;;5003161;28;20642;-68
2022/06/06 10:43:29;;;;;;;2.72;1.30;;;;;;;;;;5003196;28;20273;-65
2022/06/06 10:46:10;;;;;;;3.25;1.25;;;;;;;;;;5006562;28;20209;-69
2022/06/06 10:48:44;;;;;;;1.75;0.80;;;;;;;;;;5001188;28;20290;-65
2022/06/06 10:51:40;;;;;;;4.70;1.40;;;;;;;;;;5006987;28;20179;-69
2022/06/06 10:54:13;;;;;;;4.72;1.70;;;;;;;;;;5002147;28;20661;-67
2022/06/06 10:57:00;;;;;;;1.70;1.60;;;;;;;;;;5010527;28;20198;-66
2022/06/06 11:00:03;;;;;;;2.22;1.73;;;;;;;;;;5009071;28;20178;-67
2022/06/06 11:02:37;;;;;;;5.78;1.70;;;;;;;;;;5011487;28;20218;-66
2022/06/06 11:05:21;;;;;;;2.70;2.05;;;;;;;;;;5010733;28;20277;-67
2022/06/06 11:08:01;;;;;;;4.03;1.77;;;;;;;;;;5003020;28;20179;-68
2022/06/06 11:11:00;;;;;;;2.08;1.63;;;;;;;;;;4997577;28;20785;-68
2022/06/06 11:13:51;;;;;;;2.85;1.90;;;;;;;;;;5013699;28;20220;-68
2022/06/06 11:16:35;;;;;;;2.20;1.50;;;;;;;;;;4995999;28;20201;-67
2022/06/06 11:19:16;;;;;;;2.08;1.52;;;;;;;;;;4997063;28;20193;-68
2022/06/06 11:22:02;;;;;;;3.35;1.52;;;;;;;;;;5000385;28;20185;-70
2022/06/06 11:24:50;;;;;;;3.63;1.20;;;;;;;;;;5004915;28;20222;-67
2022/06/06 11:27:36;;;;;;;3.28;1.52;;;;;;;;;;5006725;28;20206;-67
2022/06/06 11:30:07;;;;;;;2.03;1.50;;;;;;;;;;5003667;28;20581;-70
2022/06/06 11:32:38;;;;;;;1.67;1.35;;;;;;;;;;4993214;28;20550;-68
2022/06/06 11:35:16;;;;;;;3.22;1.33;;;;;;;;;;5002150;28;20562;-68
2022/06/06 11:37:58;;;;;;;1.52;1.42;;;;;;;;;;5000743;28;20607;-68
2022/06/06 11:41:06;;;;;;;1.98;1.30;;;;;;;;;;5004468;28;20183;-65
2022/06/06 11:43:43;;;;;;;2.80;1.35;;;;;;;;;;5002375;28;20547;-70
2022/06/06 11:46:17;;;;;;;1.70;1.35;;;;;;;;;;5009946;28;20170;-68
2022/06/06 11:49:19;;;;;;;2.92;1.30;;;;;;;;;;5012046;28;20187;-66
2022/06/06 11:52:20;;;;;;;2.35;1.35;;;;;;;;;;5007143;28;20175;-70
2022/06/06 11:55:09;;;;;;;2.60;1.20;;;;;;;;;;5006678;28;20183;-67
2022/06/06 11:58:03;;;;;;;4.82;1.50;;;;;;;;;;5008253;28;20292;-69
2022/06/06 12:00:38;;;;;;;2.10;1.63;;;;;;;;;;5043233;28;20194;-66
2022/06/06 12:03:22;;;;;;;4.75;1.60;;;;;;;;;;5004241;28;20190;-65
2022/06/06 12:06:25;;;;;;;3.05;1.77;;;;;;;;;;5027213;28;20270;-67
2022/06/06 12:09:02;;;;;;;4.07;1.70;;;;;;;;;;5005812;28;20244;-67
2022/06/06 12:11:28;;;;;;;5.43;1.95;;;;;;;;;;5000672;28;20229;-68
2022/06/06 12:14:30;;;;;;;3.35;1.95;;;;;;;;;;5007978;28;20190;-68
2022/06/06 12:17:10;;;;;;;3.78;1.70;;;;;;;;;;5010433;28;20675;-68
2022/06/06 12:19:57;;;;;;;2.30;1.60;;;;;;;;;;4658027;28;10000820;-68
2022/06/06 12:22:33;;;;;;;3.47;1.27;;;;;;;;;;5000153;28;20214;-66
2022/06/06 12:25:01;;;;;;;4.18;1.45;;;;;;;;;;5004724;28;20226;-69
2022/06/06 12:28:01;;;;;;;4.63;1.30;;;;;;;;;;5004961;28;20179;-66
2022/06/06 12:30:48;;;;;;;6.15;1.83;;;;;;;;;;5003820;28;20191;-68
2022/06/06 12:33:28;;;;;;;1.48;1.30;;;;;;;;;;5003230;28;20586;-67
2022/06/06 12:36:08;;;;;;;2.20;1.98;;;;;;;;;;5001469;28;20637;-70
2022/06/06 12:38:42;;;;;;;1.80;1.70;;;;;;;;;;5004959;28;20186;-68
2022/06/06 12:41:18;;;;;;;1.75;1.13;;;;;;;;;;5007794;28;20197;-68
2022/06/06 12:44:02;;;;;;;3.45;1.60;;;;;;;;;;5007558;28;20201;-68
2022/06/06 12:47:01;;;;;;;2.67;1.30;;;;;;;;;;5004620;28;20263;-67
2022/06/06 12:49:36;;;;;;;2.28;1.10;;;;;;;;;;5035059;28;20203;-66
2022/06/06 12:52:23;;;;;;;1.83;1.20;;;;;;;;;;5009219;28;20264;-69
2022/06/06 12:55:39;;;;;;;1.98;1.30;;;;;;;;;;5008684;28;20186;-67
2022/06/06 12:58:10;;;;;;;3.00;1.17;;;;;;;;;;5008190;28;20219;-67
2022/06/06 13:03:39;;;;;;;2.83;1.30;;;;;;;;;;5002135;28;20181;-69
2022/06/06 13:06:08;;;;;;;2.78;1.05;;;;;;;;;;5009342;28;20175;-67
2022/06/06 13:09:02;;;;;;;3.08;1.38;;;;;;;;;;5002416;28;20198;-67
2022/06/06 13:11:56;;;;;;;1.63;1.17;;;;;;;;;;5007008;28;20175;-66
2022/06/06 13:14:34;;;;;;;1.92;1.10;;;;;;;;;;5023682;28;20179;-69
2022/06/06 13:17:08;;;;;;;2.45;1.10;;;;;;;;;;5001891;28;20246;-67
2022/06/06 13:19:37;;;;;;;3.42;1.10;;;;;;;;;;5009960;28;20415;-66
2022/06/06 13:22:05;;;;;;;2.70;1.15;;;;;;;;;;5002559;28;20187;-70
2022/06/06 13:25:09;;;;;;;2.33;1.38;;;;;;;;;;5001217;28;20302;-67
2022/06/06 13:27:40;;;;;;;2.53;1.13;;;;;;;;;;5009091;28;20697;-67
2022/06/06 13:30:20;;;;;;;3.17;1.10;;;;;;;;;;5007468;28;20289;-68
2022/06/06 13:33:07;;;;;;;3.47;1.90;;;;;;;;;;5008279;28;20210;-66
2022/06/06 13:36:11;;;;;;;5.68;1.42;;;;;;;;;;5006708;28;20182;-66
2022/06/06 13:38:48;;;;;;;3.20;1.40;;;;;;;;;;5008855;28;20245;-67
2022/06/06 13:41:16;;;;;;;2.42;1.50;;;;;;;;;;5005478;28;20178;-67
2022/06/06 13:43:55;;;;;;;4.07;1.23;;;;;;;;;;5008618;28;20413;-67
2022/06/06 13:46:39;;;;;;;2.50;1.30;;;;;;;;;;5005659;28;20402;-66
2022/06/06 13:49:19;;;;;;;1.52;1.17;;;;;;;;;;5008021;28;20194;-68
2022/06/06 13:52:21;;;;;;;2.13;1.00;;;;;;;;;;5007080;28;20189;-70
2022/06/06 13:54:47;;;;;;;3.15;1.33;;;;;;;;;;5024877;28;20198;-68
2022/06/06 13:57:27;;;;;;;2.15;1.38;;;;;;;;;;5012318;28;20605;-67
2022/06/06 14:00:16;;;;;;;5.32;1.60;;;;;;;;;;5009038;28;20236;-70
2022/06/06 14:03:19;;;;;;;2.78;1.00;;;;;;;;;;5009328;28;20175;-69
2022/06/06 14:06:02;;;;;;;1.10;1.00;;;;;;;;;;5005813;28;20178;-68
2022/06/06 14:08:47;;;;;;;1.77;1.27;;;;;;;;;;4310211;28;10000719;-69
2022/06/06 14:11:28;;;;;;;2.00;1.10;;;;;;;;;;5003541;28;20206;-65
2022/06/06 14:13:56;;;;;;;2.17;1.63;;;;;;;;;;5000273;28;20186;-67
2022/06/06 14:16:28;;;;;;;3.25;1.40;;;;;;;;;;5006819;28;20195;-67
2022/06/06 14:19:05;;;;;;;1.52;1.27;;;;;;;;;;5003787;28;20718;-67
2022/06/06 14:21:34;;;;;;;1.88;1.33;;;;;;;;;;5002108;28;20182;-67
2022/06/06 14:24:11;;;;;;;2.33;1.02;;;;;;;;;;5001590;28;20182;-67
2022/06/06 14:26:36;;;;;;;2.08;1.40;;;;;;;;;;5002379;28;20613;-69
2022/06/06 14:29:08;;;;;;;1.40;1.30;;;;;;;;;;5004751;28;20213;-68
2022/06/06 14:31:54;;;;;;;4.85;2.05;;;;;;;;;;5004091;28;20195;-67
2022/06/06 14:34:44;;;;;;;2.50;1.27;;;;;;;;;;4994489;28;20242;-66
2022/06/06 14:37:17;;;;;;;2.05;1.50;;;;;;;;;;4991785;28;20686;-67
2022/06/06 14:39:45;;;;;;;1.75;1.40;;;;;;;;;;5003032;28;20298;-67
2022/06/06 14:42:12;;;;;;;4.18;1.73;;;;;;;;;;5003365;28;20236;-65
2022/06/06 14:44:44;;;;;;;3.05;1.20;;;;;;;;;;5002419;28;20231;-67
2022/06/06 14:47:20;;;;;;;4.68;1.45;;;;;;;;;;5001434;28;20252;-69
2022/06/06 14:50:45;;;;;;;4.43;1.35;;;;;;;;;;4999515;28;20663;-68
2022/06/06 14:52:36;;;;;;;2.92;1.50;;;;;;;;;;5001794;28;20190;-68
2022/06/06 14:55:04;;;;;;;2.35;1.50;;;;;;;;;;5034675;28;20183;-67
2022/06/06 14:57:31;;;;;;;3.40;2.03;;;;;;;;;;5000365;28;20212;-68
2022/06/06 14:59:58;;;;;;;4.80;1.85;;;;;;;;;;5004849;28;20198;-68
2022/06/06 15:02:26;;;;;;;3.78;1.45;;;;;;;;;;5004574;28;20326;-68
2022/06/06 15:05:23;;;;;;;3.05;1.40;;;;;;;;;;5005041;28;20394;-67
2022/06/06 15:08:16;;;;;;;3.25;1.42;;;;;;;;;;4999374;28;20245;-68
2022/06/06 15:11:01;;;;;;;3.60;1.17;;;;;;;;;;5004183;28;20194;-68
2022/06/06 15:13:28;;;;;;;6.32;1.65;;;;;;;;;;4998453;28;20194;-68
2022/06/06 15:15:55;;;;;;;3.35;1.10;;;;;;;;;;5001759;28;20222;-68
2022/06/06 15:18:21;;;;;;;2.88;1.20;;;;;;;;;;4999996;28;20222;-71
2022/06/06 15:20:52;;;;;;;2.97;1.13;;;;;;;;;;5002479;28;20663;-67
2022/06/06 15:23:40;;;;;;;1.52;1.17;;;;;;;;;;5006661;28;20229;-67
2022/06/06 15:26:17;;;;;;;7.07;1.42;;;;;;;;;;5007228;28;20245;-67
2022/06/06 15:29:08;;;;;;;2.75;1.75;;;;;;;;;;5001955;28;20252;-66
2022/06/06 15:31:55;;;;;;;3.40;1.48;;;;;;;;;;5018752;28;20202;-70
2022/06/06 15:34:58;;;;;;;2.90;1.50;;;;;;;;;;5004698;28;20524;-67
2022/06/06 15:37:33;;;;;;;1.90;1.75;;;;;;;;;;5003735;28;20248;-68
2022/06/06 15:40:17;;;;;;;3.03;2.25;;;;;;;;;;5000465;28;20223;-67
2022/06/06 15:42:45;;;;;;;2.95;2.13;;;;;;;;;;5002244;28;20201;-65
2022/06/06 15:45:44;;;;;;;3.65;2.10;;;;;;;;;;4999556;28;20334;-65
2022/06/06 15:48:17;;;;;;;4.95;2.20;;;;;;;;;;5004769;28;20190;-67
2022/06/06 15:50:55;;;;;;;3.78;2.72;;;;;;;;;;5033866;28;20720;-65
2022/06/06 15:53:49;;;;;;;4.97;3.10;;;;;;;;;;5003200;28;20206;-65
2022/06/06 15:56:34;;;;;;;3.85;3.30;;;;;;;;;;5001884;28;20198;-65
2022/06/06 15:59:16;;;;;;;5.18;3.20;;;;;;;;;;5008191;28;20539;-69
2022/06/06 16:02:02;;;;;;;8.45;4.03;;;;;;;;;;5005889;28;20595;-66
2022/06/06 16:04:41;;;;;;;6.13;4.00;;;;;;;;;;5002524;28;20571;-66
2022/06/06 16:07:23;;;;;;;6.32;4.20;;;;;;;;;;5005335;28;20179;-66